Time;durP1;ratioP1;P1;durP2;ratioP2;P2;SDS_P1;SDS_P2;PMS_P1;PMS_P2;Temp;Humidity;BMP_temperature;BMP_pressure;BME280_temperature;BME280_humidity;BME280_pressure;Samples;Min_cycle;Max_cycle;Signal;HPM_P1;HPM_P2
2021/04/08 00:00:25;;;;;;;10.27;4.25;;;;;;;14.98;67.28;101094.47;5015984;28;20034;-72
2021/04/08 00:02:52;;;;;;;12.45;4.40;;;;;;;14.92;67.26;101097.13;5029678;28;20108;-72
2021/04/08 00:05:19;;;;;;;16.27;4.88;;;;;;;14.92;67.45;101096.22;5013284;28;20068;-72
2021/04/08 00:07:47;;;;;;;12.30;4.55;;;;;;;14.81;67.53;101108.59;5024789;28;20037;-72
2021/04/08 00:10:15;;;;;;;12.35;4.07;;;;;;;14.66;67.47;101098.78;5029753;28;20421;-73
2021/04/08 00:12:43;;;;;;;21.05;4.72;;;;;;;14.49;67.30;101105.81;5030006;28;20045;-72
2021/04/08 00:15:12;;;;;;;21.60;5.55;;;;;;;14.44;66.99;101100.44;5030650;28;20046;-72
2021/04/08 00:17:40;;;;;;;18.25;6.13;;;;;;;14.52;67.41;101100.50;5028988;28;20060;-72
2021/04/08 00:20:10;;;;;;;23.85;5.97;;;;;;;14.58;67.49;101100.53;5029622;28;20060;-73
2021/04/08 00:22:37;;;;;;;21.25;5.93;;;;;;;14.61;67.40;101108.53;5015841;28;20061;-72
2021/04/08 00:25:07;;;;;;;18.48;5.30;;;;;;;14.64;67.50;101106.75;5025089;28;20064;-72
2021/04/08 00:27:34;;;;;;;17.20;5.22;;;;;;;14.59;67.31;101105.84;5030181;28;20037;-72
2021/04/08 00:30:01;;;;;;;21.08;5.65;;;;;;;14.54;67.59;101101.41;5028474;28;20430;-72
2021/04/08 00:32:28;;;;;;;16.00;5.20;;;;;;;14.43;68.02;101089.84;5029817;28;20046;-72
2021/04/08 00:34:55;;;;;;;17.60;5.47;;;;;;;14.32;68.42;101095.94;5020683;28;20064;-72
2021/04/08 00:37:22;;;;;;;15.95;4.25;;;;;;;14.28;68.70;101094.16;5029906;28;20044;-72
2021/04/08 00:39:49;;;;;;;11.57;4.82;;;;;;;14.28;68.80;101087.94;5030027;28;20102;-72
2021/04/08 00:42:17;;;;;;;17.13;4.85;;;;;;;14.29;68.94;101087.97;5025844;28;20034;-72
2021/04/08 00:44:44;;;;;;;10.95;4.07;;;;;;;14.28;69.09;101086.19;5009663;28;20453;-72
2021/04/08 00:47:11;;;;;;;13.00;3.25;;;;;;;14.35;69.11;101079.16;5026153;28;20493;-72
2021/04/08 00:49:38;;;;;;;16.95;4.15;;;;;;;14.42;69.14;101077.44;5028958;28;20037;-72
2021/04/08 00:52:05;;;;;;;10.43;3.88;;;;;;;14.47;69.41;101088.97;5029010;28;20037;-71
2021/04/08 00:54:33;;;;;;;11.40;3.72;;;;;;;14.51;69.46;101091.63;5029633;28;20038;-72
2021/04/08 00:57:01;;;;;;;13.73;4.05;;;;;;;14.55;69.62;101092.56;5023609;28;20045;-72
2021/04/08 00:59:29;;;;;;;16.30;4.32;;;;;;;14.57;69.57;101091.66;5028828;28;20044;-72
2021/04/08 01:01:56;;;;;;;17.85;4.20;;;;;;;14.57;69.61;101090.81;5029281;28;20040;-72
2021/04/08 01:04:24;;;;;;;13.77;4.40;;;;;;;14.58;69.59;101088.13;5028863;28;20034;-72
2021/04/08 01:06:51;;;;;;;18.98;4.88;;;;;;;14.57;69.52;101085.50;5029143;28;20120;-72
2021/04/08 01:09:18;;;;;;;16.70;4.63;;;;;;;14.57;69.91;101078.38;5029512;28;20040;-72
2021/04/08 01:11:45;;;;;;;12.95;3.58;;;;;;;14.60;70.03;101089.03;5028145;28;20037;-72
2021/04/08 01:14:14;;;;;;;11.52;5.03;;;;;;;14.66;69.93;101088.16;5028816;28;20095;-73
2021/04/08 01:16:51;;;;;;;13.77;4.57;;;;;;;14.71;69.72;101097.03;5029541;28;20420;-72
2021/04/08 01:20:17;;;;;;;17.60;4.35;;;;;;;14.77;69.76;101107.69;5029265;28;20037;-72
2021/04/08 01:23:03;;;;;;;20.92;4.80;;;;;;;14.78;69.54;101101.50;5028701;28;20030;-72
2021/04/08 01:25:52;;;;;;;16.08;4.20;;;;;;;14.79;69.61;101097.97;5028457;28;20125;-73
2021/04/08 01:28:28;;;;;;;23.25;5.53;;;;;;;14.80;69.95;101094.44;5018805;28;20107;-72
2021/04/08 01:30:59;;;;;;;14.57;4.43;;;;;;;14.79;70.21;101092.66;5029098;28;20083;-72
2021/04/08 01:33:32;;;;;;;25.65;4.93;;;;;;;14.77;70.24;101102.38;5028809;28;20044;-72
2021/04/08 01:36:04;;;;;;;14.70;4.22;;;;;;;14.77;70.03;101087.31;5028242;28;20033;-72
2021/04/08 01:38:36;;;;;;;16.58;4.57;;;;;;;14.77;70.14;101085.56;5028182;28;20049;-72
2021/04/08 01:41:04;;;;;;;21.13;5.65;;;;;;;14.79;70.11;101087.34;5008333;28;20053;-75
2021/04/08 01:43:36;;;;;;;13.23;4.47;;;;;;;14.79;70.11;101092.66;5009035;28;20529;-72
2021/04/08 01:46:05;;;;;;;13.85;3.65;;;;;;;14.81;70.04;101087.34;5025270;28;20389;-72
2021/04/08 01:48:35;;;;;;;16.80;4.97;;;;;;;14.80;70.03;101075.81;5028390;28;20046;-72
2021/04/08 01:51:04;;;;;;;16.60;4.13;;;;;;;14.80;70.07;101072.28;5016512;28;20069;-72
2021/04/08 01:53:34;;;;;;;13.70;4.05;;;;;;;14.81;70.15;101069.63;4989409;28;20046;-72
2021/04/08 01:56:02;;;;;;;13.75;5.00;;;;;;;14.82;70.13;101065.22;5006538;28;20127;-72
2021/04/08 01:58:31;;;;;;;13.73;5.57;;;;;;;14.82;70.13;101059.88;5008588;28;20049;-73
2021/04/08 02:00:58;;;;;;;9.82;4.47;;;;;;;14.83;69.87;101057.25;5009020;28;20455;-72
2021/04/08 02:03:27;;;;;;;14.60;4.40;;;;;;;14.87;69.35;101066.09;5011818;28;20153;-73
2021/04/08 02:05:56;;;;;;;16.98;5.38;;;;;;;14.86;68.95;101070.53;5010830;28;20490;-72
2021/04/08 02:08:24;;;;;;;14.43;4.88;;;;;;;14.89;68.86;101083.84;5010481;28;20038;-72
2021/04/08 02:10:51;;;;;;;15.40;4.10;;;;;;;14.89;69.29;101081.19;5006968;28;20050;-73
2021/04/08 02:13:19;;;;;;;13.38;4.30;;;;;;;14.88;69.36;101068.78;4992877;28;20402;-73
2021/04/08 02:15:47;;;;;;;15.32;3.72;;;;;;;14.88;69.60;101071.44;4991549;28;20044;-72
2021/04/08 02:18:19;;;;;;;16.00;5.03;;;;;;;14.87;69.75;101069.66;4991429;28;20093;-73
2021/04/08 02:20:50;;;;;;;17.08;4.85;;;;;;;14.84;69.90;101069.63;4993838;28;20793;-73
2021/04/08 02:23:21;;;;;;;10.45;4.28;;;;;;;14.80;70.03;101054.56;4992399;28;20399;-72
2021/04/08 02:25:50;;;;;;;13.82;4.20;;;;;;;14.75;69.95;101043.94;5009035;28;20038;-73
2021/04/08 02:28:18;;;;;;;14.43;3.60;;;;;;;14.72;69.39;101050.97;5012790;28;20048;-73
2021/04/08 02:30:47;;;;;;;17.38;5.75;;;;;;;14.73;68.67;101056.31;5012583;28;20125;-72
2021/04/08 02:33:19;;;;;;;10.98;3.55;;;;;;;14.72;68.14;101065.16;5012588;28;20045;-72
2021/04/08 02:35:47;;;;;;;13.13;2.88;;;;;;;14.73;68.10;101066.94;5011736;28;20037;-72
2021/04/08 02:38:14;;;;;;;12.43;3.85;;;;;;;14.75;68.05;101065.19;5012392;28;20127;-73
2021/04/08 02:40:41;;;;;;;9.63;3.50;;;;;;;14.76;68.02;101079.38;5011648;28;20502;-72
2021/04/08 02:43:10;;;;;;;11.07;3.67;;;;;;;14.77;67.63;101078.44;5012816;28;20113;-72
2021/04/08 02:45:37;;;;;;;11.65;3.65;;;;;;;14.76;67.70;101087.34;5030410;28;20397;-72
2021/04/08 02:48:08;;;;;;;9.82;3.90;;;;;;;14.76;67.63;101082.03;5014540;28;20045;-73
2021/04/08 02:50:35;;;;;;;13.35;3.80;;;;;;;14.72;67.39;101082.88;5022425;28;20047;-73
2021/04/08 02:53:13;;;;;;;11.30;4.20;;;;;;;14.72;67.32;101085.53;5031198;28;20124;-73
2021/04/08 02:55:43;;;;;;;16.00;4.00;;;;;;;14.71;67.27;101089.06;5019186;28;20510;-72
2021/04/08 02:58:12;;;;;;;13.98;4.00;;;;;;;14.69;67.35;101096.16;5017210;28;20056;-72
2021/04/08 03:00:48;;;;;;;15.00;3.75;;;;;;;14.69;67.27;101085.53;5028103;28;20038;-72
2021/04/08 03:03:19;;;;;;;13.05;4.05;;;;;;;14.67;67.37;101084.63;4999756;28;20066;-72
2021/04/08 03:05:48;;;;;;;12.13;3.78;;;;;;;14.67;67.38;101081.97;4992369;28;20069;-72
2021/04/08 03:08:20;;;;;;;14.45;3.72;;;;;;;14.68;67.70;101086.41;4992439;28;20398;-72
2021/04/08 03:10:48;;;;;;;13.05;3.38;;;;;;;14.67;67.92;101090.84;5007895;28;20108;-72
2021/04/08 03:13:18;;;;;;;17.13;3.35;;;;;;;14.65;68.03;101081.06;5010886;28;20037;-72
2021/04/08 03:15:46;;;;;;;9.80;3.10;;;;;;;14.63;67.67;101086.41;5011310;28;20038;-72
2021/04/08 03:18:17;;;;;;;9.55;3.15;;;;;;;14.64;66.73;101097.88;5006805;28;20044;-72
2021/04/08 03:20:51;;;;;;;12.80;3.13;;;;;;;14.64;66.00;101087.25;5004969;28;20052;-72
2021/04/08 03:23:21;;;;;;;11.60;4.18;;;;;;;14.63;65.77;101106.78;5011647;28;20049;-73
2021/04/08 03:25:49;;;;;;;10.50;3.67;;;;;;;14.56;65.53;101102.31;4993690;28;20066;-73
2021/04/08 03:28:17;;;;;;;7.03;2.60;;;;;;;14.52;65.93;101095.19;4992018;28;20177;-72
2021/04/08 03:30:46;;;;;;;17.10;4.70;;;;;;;14.56;66.45;101108.50;4991707;28;20038;-72
2021/04/08 03:33:14;;;;;;;10.50;3.50;;;;;;;14.53;66.86;101113.78;5005767;28;20049;-73
2021/04/08 03:35:46;;;;;;;14.30;4.18;;;;;;;14.52;67.29;101132.38;5010896;28;20412;-72
2021/04/08 03:38:14;;;;;;;17.13;4.18;;;;;;;14.49;67.55;101141.25;5010875;28;20053;-72
2021/04/08 03:40:42;;;;;;;10.80;3.95;;;;;;;14.50;67.71;101142.13;5009974;28;20130;-72
2021/04/08 03:43:10;;;;;;;9.90;3.20;;;;;;;14.50;67.82;101140.38;5011128;28;20117;-73
2021/04/08 03:45:37;;;;;;;11.18;3.67;;;;;;;14.51;67.64;101130.59;5014293;28;20121;-72
2021/04/08 03:48:08;;;;;;;12.65;4.38;;;;;;;14.50;67.62;101120.88;4993375;28;20510;-72
2021/04/08 03:50:36;;;;;;;14.40;5.13;;;;;;;14.49;67.52;101108.47;4991265;28;20053;-73
2021/04/08 03:53:05;;;;;;;7.30;2.67;;;;;;;14.49;67.32;101109.34;5004192;28;20038;-72
2021/04/08 03:55:34;;;;;;;9.23;3.22;;;;;;;14.49;67.26;101117.31;5009520;28;20121;-72
2021/04/08 03:58:07;;;;;;;14.68;3.92;;;;;;;14.47;67.20;101105.78;5010907;28;20053;-72
2021/04/08 04:00:36;;;;;;;9.57;3.00;;;;;;;14.44;66.88;101096.94;5009717;28;20046;-73
2021/04/08 04:03:04;;;;;;;12.63;3.40;;;;;;;14.45;66.69;101115.50;5010421;28;20221;-73
2021/04/08 04:05:32;;;;;;;12.25;3.35;;;;;;;14.49;66.19;101111.13;5011206;28;20062;-73
2021/04/08 04:07:59;;;;;;;14.30;3.58;;;;;;;14.54;65.80;101123.53;5010142;28;20042;-72
2021/04/08 04:10:26;;;;;;;10.57;2.83;;;;;;;14.59;65.65;101121.78;5009507;28;20034;-72
2021/04/08 04:12:55;;;;;;;10.25;2.78;;;;;;;14.67;65.48;101119.19;5010578;28;20042;-72
2021/04/08 04:15:24;;;;;;;10.77;2.88;;;;;;;14.74;65.41;101124.53;5009985;28;20038;-73
2021/04/08 04:17:51;;;;;;;10.45;3.17;;;;;;;14.83;65.00;101123.69;5009166;28;20457;-73
2021/04/08 04:20:20;;;;;;;15.52;3.08;;;;;;;14.92;64.94;101126.38;5009653;28;20041;-73
2021/04/08 04:22:47;;;;;;;15.52;3.95;;;;;;;15.02;64.82;101125.53;5010407;28;20045;-72
2021/04/08 04:25:14;;;;;;;10.60;3.28;;;;;;;15.16;64.69;101121.13;5009764;28;20092;-73
2021/04/08 04:27:41;;;;;;;10.52;2.83;;;;;;;15.35;64.55;101116.75;5009782;28;20038;-73
2021/04/08 04:30:10;;;;;;;13.10;3.35;;;;;;;15.59;64.35;101121.25;5005614;28;20513;-73
2021/04/08 04:32:39;;;;;;;9.07;2.60;;;;;;;15.85;63.80;101123.91;4990676;28;20065;-72
2021/04/08 04:35:07;;;;;;;8.73;2.53;;;;;;;16.10;63.28;101120.34;5003803;28;20041;-73
2021/04/08 04:37:34;;;;;;;8.50;3.10;;;;;;;16.32;62.69;101127.41;5010066;28;20140;-72
2021/04/08 04:40:01;;;;;;;9.10;3.10;;;;;;;16.55;62.37;101129.13;5004119;28;20050;-73
2021/04/08 04:42:28;;;;;;;11.35;2.80;;;;;;;16.73;61.93;101134.44;4990531;28;20042;-73
2021/04/08 04:44:56;;;;;;;11.07;2.60;;;;;;;16.90;61.83;101126.38;4998833;28;20502;-71
2021/04/08 04:47:23;;;;;;;8.88;2.53;;;;;;;17.00;61.35;101120.97;5010296;28;20079;-73
2021/04/08 04:49:51;;;;;;;10.45;3.30;;;;;;;17.21;61.27;101119.97;5009869;28;20034;-74
2021/04/08 04:52:18;;;;;;;7.80;2.42;;;;;;;17.44;60.60;101120.72;5006038;28;20034;-73
2021/04/08 04:54:46;;;;;;;7.55;2.88;;;;;;;17.69;60.16;101118.78;5009285;28;20041;-73
2021/04/08 04:57:13;;;;;;;17.65;2.88;;;;;;;17.76;59.16;101127.63;5008275;28;20041;-74
2021/04/08 04:59:40;;;;;;;16.67;2.78;;;;;;;17.88;59.06;101132.88;5004978;28;20038;-73
2021/04/08 05:02:10;;;;;;;6.60;2.28;;;;;;;18.01;58.68;101145.22;4994616;28;20442;-74
2021/04/08 05:04:39;;;;;;;11.77;2.53;;;;;;;18.08;58.37;101146.94;4995060;28;20117;-73
2021/04/08 05:07:07;;;;;;;6.65;1.73;;;;;;;18.13;58.32;101134.44;5009072;28;20046;-73
2021/04/08 05:09:34;;;;;;;11.80;3.25;;;;;;;18.16;58.14;101136.19;5009398;28;20042;-73
2021/04/08 05:12:01;;;;;;;9.73;2.42;;;;;;;18.11;57.61;101130.91;5009589;28;20057;-73
2021/04/08 05:14:28;;;;;;;10.98;2.47;;;;;;;18.08;57.74;101133.59;5008360;28;20497;-74
2021/04/08 05:16:55;;;;;;;13.23;2.65;;;;;;;18.12;57.52;101134.44;5006871;28;20030;-74
2021/04/08 05:19:22;;;;;;;15.65;2.95;;;;;;;18.16;57.53;101130.84;5008659;28;20048;-73
2021/04/08 05:21:50;;;;;;;16.90;2.92;;;;;;;18.27;57.03;101137.84;5006550;28;20517;-74
2021/04/08 05:24:18;;;;;;;7.88;2.33;;;;;;;18.46;56.58;101137.66;4991014;28;20048;-73
2021/04/08 05:26:45;;;;;;;8.88;2.40;;;;;;;18.55;56.06;101141.16;4993927;28;20541;-74
2021/04/08 05:29:12;;;;;;;11.38;2.97;;;;;;;18.72;56.08;101132.94;5006219;28;20149;-74
2021/04/08 05:31:39;;;;;;;21.98;9.50;;;;;;;18.96;55.84;101135.34;5001657;28;20030;-73
2021/04/08 05:34:06;;;;;;;24.13;11.40;;;;;;;19.13;55.36;101124.41;4988672;28;20715;-73
2021/04/08 05:36:33;;;;;;;20.08;10.50;;;;;;;19.16;55.13;101123.47;4993773;28;20045;-74
2021/04/08 05:39:00;;;;;;;14.10;6.25;;;;;;;19.14;54.82;101138.66;4989959;28;20493;-73
2021/04/08 05:41:28;;;;;;;14.32;6.22;;;;;;;19.18;54.66;101140.38;4994120;28;20463;-73
2021/04/08 05:43:55;;;;;;;14.48;5.15;;;;;;;19.36;54.67;101137.47;4995883;28;20031;-73
2021/04/08 05:46:22;;;;;;;13.75;6.05;;;;;;;19.62;54.20;101131.75;4990281;28;20034;-73
2021/04/08 05:48:49;;;;;;;11.52;6.32;;;;;;;19.87;53.06;101142.06;4989565;28;20065;-73
2021/04/08 05:51:16;;;;;;;13.63;6.85;;;;;;;20.16;52.59;101140.66;4989137;28;20039;-73
2021/04/08 05:53:43;;;;;;;15.80;5.90;;;;;;;20.54;52.29;101153.41;4989576;28;20402;-73
2021/04/08 05:56:10;;;;;;;12.85;5.63;;;;;;;20.79;51.58;101138.59;4992939;28;20508;-73
2021/04/08 05:58:38;;;;;;;12.32;5.32;;;;;;;20.91;51.43;101134.78;4994786;28;20133;-73
2021/04/08 06:01:06;;;;;;;14.38;5.78;;;;;;;20.86;51.06;101140.25;4993779;28;20042;-74
2021/04/08 06:03:33;;;;;;;16.33;7.82;;;;;;;20.86;51.08;101137.56;4999057;28;20129;-73
2021/04/08 06:06:00;;;;;;;22.92;10.20;;;;;;;20.96;50.62;101147.16;4995789;28;20060;-73
2021/04/08 06:08:27;;;;;;;20.67;11.43;;;;;;;21.20;50.32;101144.94;4995456;28;20108;-74
2021/04/08 06:10:54;;;;;;;18.08;8.75;;;;;;;21.53;50.12;101149.50;4993450;28;20041;-73
2021/04/08 06:13:21;;;;;;;13.80;5.38;;;;;;;21.46;48.94;101148.78;4995217;28;20673;-73
2021/04/08 06:15:49;;;;;;;19.95;9.43;;;;;;;21.59;49.08;101153.88;4991165;28;20102;-74
2021/04/08 06:18:16;;;;;;;20.02;8.40;;;;;;;21.71;48.71;101149.09;5001674;28;20041;-74
2021/04/08 06:20:43;;;;;;;21.33;9.07;;;;;;;21.90;48.40;101137.91;5021464;28;20045;-74
2021/04/08 06:23:10;;;;;;;13.20;5.57;;;;;;;22.09;47.95;101148.19;5027316;28;20069;-73
2021/04/08 06:25:37;;;;;;;16.02;7.10;;;;;;;22.17;48.26;101148.00;5006870;28;20070;-73
2021/04/08 06:28:04;;;;;;;18.25;5.32;;;;;;;;;;5007172;28;20095;-74
2021/04/08 06:30:32;;;;;;;33.60;16.85;;;;;;;22.29;47.38;101152.16;4990332;28;21475;-74
2021/04/08 06:33:00;;;;;;;64.65;39.35;;;;;;;22.80;46.61;101152.56;5007541;28;20041;-74
2021/04/08 06:35:27;;;;;;;33.65;20.08;;;;;;;23.10;46.18;101148.13;5004812;28;20034;-74
2021/04/08 06:37:54;;;;;;;25.52;13.38;;;;;;;23.18;45.68;101155.00;4997168;28;20050;-73
2021/04/08 06:40:22;;;;;;;18.98;9.70;;;;;;;23.26;45.58;101158.38;5003751;28;20057;-74
2021/04/08 06:42:53;;;;;;;14.00;6.72;;;;;;;23.53;45.01;101159.38;4999348;28;20052;-74
2021/04/08 06:45:24;;;;;;;9.20;4.50;;;;;;;23.56;44.04;101170.06;5005391;28;20038;-74
2021/04/08 06:48:01;;;;;;;13.65;3.65;;;;;;;23.65;43.29;101168.88;4989090;28;20042;-74
2021/04/08 06:50:36;;;;;;;11.40;3.97;;;;;;;23.62;42.69;101171.69;5008786;28;20045;-74
2021/04/08 06:53:05;;;;;;;13.35;5.00;;;;;;;23.58;43.08;101176.28;5004817;28;20042;-74
2021/04/08 06:55:32;;;;;;;12.32;4.75;;;;;;;23.76;43.49;101172.13;4996266;28;20527;-74
2021/04/08 06:58:03;;;;;;;9.45;4.68;;;;;;;23.82;43.20;101170.13;5002018;28;20157;-73
2021/04/08 07:00:31;;;;;;;13.30;4.25;;;;;;;23.95;41.99;101162.50;5009331;28;20151;-74
2021/04/08 07:03:00;;;;;;;8.90;2.92;;;;;;;24.04;40.55;101166.69;5008360;28;20506;-74
2021/04/08 07:05:27;;;;;;;8.18;3.72;;;;;;;24.09;36.90;101176.38;4994588;28;20456;-75
2021/04/08 07:07:55;;;;;;;13.77;5.30;;;;;;;24.38;36.58;101161.94;5010589;28;20058;-75
2021/04/08 07:10:23;;;;;;;9.77;3.63;;;;;;;24.82;35.67;101165.72;5011221;28;20568;-74
2021/04/08 07:12:53;;;;;;;9.15;3.13;;;;;;;25.20;34.03;101163.47;5010678;28;20045;-75
2021/04/08 07:15:21;;;;;;;7.00;2.58;;;;;;;24.92;34.11;101169.03;5005987;28;20038;-79
2021/04/08 07:17:48;;;;;;;7.35;2.30;;;;;;;24.63;34.05;101176.31;5007022;28;20380;-75
2021/04/08 07:20:15;;;;;;;8.57;2.60;;;;;;;24.39;34.08;101185.31;5023277;28;20129;-76
2021/04/08 07:22:42;;;;;;;5.80;2.05;;;;;;;24.47;34.30;101185.03;5015656;28;20045;-74
2021/04/08 07:25:19;;;;;;;6.10;1.77;;;;;;;24.66;33.96;101182.56;5013995;28;20517;-72
2021/04/08 07:27:46;;;;;;;7.30;1.95;;;;;;;24.92;33.97;101179.84;5007761;28;20042;-72
2021/04/08 07:30:18;;;;;;;7.78;1.77;;;;;;;25.26;33.59;101180.34;5023474;28;20048;-72
2021/04/08 07:32:45;;;;;;;9.63;3.50;;;;;;;25.53;33.18;101185.59;5017071;28;20103;-72
2021/04/08 07:35:15;;;;;;;7.85;3.10;;;;;;;25.74;32.69;101184.75;5025219;28;20036;-73
2021/04/08 07:37:43;;;;;;;6.82;2.45;;;;;;;25.99;32.36;101179.25;5025697;28;20042;-73
2021/04/08 07:40:20;;;;;;;6.35;2.53;;;;;;;26.17;31.41;101186.59;5021915;28;20402;-71
2021/04/08 07:42:47;;;;;;;7.88;2.42;;;;;;;26.36;31.89;101186.72;5028111;28;20060;-72
2021/04/08 07:45:24;;;;;;;8.18;2.53;;;;;;;26.44;30.01;101185.47;5020156;28;20038;-72
2021/04/08 07:47:58;;;;;;;10.77;3.00;;;;;;;26.47;30.34;101189.84;5029801;28;20048;-73
2021/04/08 07:50:25;;;;;;;9.52;2.28;;;;;;;26.48;30.37;101195.19;5019924;28;20046;-73
2021/04/08 07:52:53;;;;;;;8.10;1.80;;;;;;;26.51;30.15;101195.06;5017758;28;20104;-72
2021/04/08 07:55:22;;;;;;;5.20;1.60;;;;;;;26.45;29.75;101198.03;5016711;28;20037;-72
2021/04/08 07:58:00;;;;;;;8.77;2.20;;;;;;;26.61;30.29;101197.38;5009948;28;20125;-73
2021/04/08 08:00:30;;;;;;;7.18;2.15;;;;;;;26.72;30.27;101201.34;5010823;28;20064;-72
2021/04/08 08:03:00;;;;;;;11.15;5.13;;;;;;;26.85;29.86;101197.16;5011284;28;20030;-72
2021/04/08 08:05:29;;;;;;;8.73;2.95;;;;;;;26.96;29.14;101205.75;5010298;28;20046;-72
2021/04/08 08:08:10;;;;;;;5.93;1.65;;;;;;;27.04;28.71;101204.50;5009791;28;20030;-72
2021/04/08 08:10:40;;;;;;;5.95;2.20;;;;;;;26.93;28.35;101214.00;5023984;28;20084;-71
2021/04/08 08:13:29;;;;;;;12.68;5.13;;;;;;;27.07;27.78;101215.19;4991505;28;20581;-73
2021/04/08 08:15:57;;;;;;;10.23;3.97;;;;;;;27.22;28.64;101207.25;5010335;28;20034;-72
2021/04/08 08:18:31;;;;;;;13.77;8.52;;;;;;;27.28;28.52;101203.38;5012582;28;20576;-72
2021/04/08 08:21:09;;;;;;;7.03;2.28;;;;;;;27.50;28.70;101200.53;5025747;28;20680;-71
2021/04/08 08:23:41;;;;;;;8.45;2.20;;;;;;;27.73;29.27;101212.06;5010148;28;20099;-73
2021/04/08 08:26:31;;;;;;;8.70;2.58;;;;;;;27.81;28.76;101213.53;5021494;28;20041;-72
2021/04/08 08:29:00;;;;;;;23.80;16.15;;;;;;;27.80;28.69;101209.06;5029770;28;20502;-72
2021/04/08 08:31:38;;;;;;;13.70;4.88;;;;;;;27.96;28.77;101213.66;5029664;28;20049;-72
2021/04/08 08:34:08;;;;;;;7.50;2.35;;;;;;;28.13;28.83;101207.41;5023181;28;20037;-72
2021/04/08 08:36:36;;;;;;;7.70;1.92;;;;;;;28.07;28.37;101214.00;5029786;28;20034;-72
2021/04/08 08:39:06;;;;;;;10.00;2.20;;;;;;;28.17;28.91;101214.44;5028793;28;20049;-73
2021/04/08 08:41:35;;;;;;;11.32;4.07;;;;;;;28.20;29.09;101216.16;5029475;28;20041;-72
2021/04/08 08:44:04;;;;;;;8.43;4.45;;;;;;;27.98;27.70;101211.75;5027254;28;20099;-73
2021/04/08 08:46:34;;;;;;;5.60;2.25;;;;;;;27.88;28.24;101210.44;5019810;28;20442;-72
2021/04/08 08:49:02;;;;;;;8.85;3.13;;;;;;;27.99;28.04;101209.91;5009522;28;20046;-72
2021/04/08 08:51:29;;;;;;;12.05;5.47;;;;;;;28.02;27.38;101202.50;5010155;28;20497;-73
2021/04/08 08:53:57;;;;;;;14.73;5.50;;;;;;;28.04;28.05;101200.56;5010120;28;20038;-72
2021/04/08 08:56:27;;;;;;;5.45;2.40;;;;;;;28.20;27.96;101200.72;5008473;28;20494;-72
2021/04/08 08:58:55;;;;;;;6.43;2.20;;;;;;;28.28;27.74;101205.78;5013533;28;20041;-72
2021/04/08 09:01:23;;;;;;;14.23;10.02;;;;;;;28.41;27.56;101205.09;5029656;28;20071;-73
2021/04/08 09:03:51;;;;;;;8.52;4.25;;;;;;;28.32;26.90;101200.09;5029278;28;20107;-72
2021/04/08 09:06:20;;;;;;;10.10;2.80;;;;;;;28.46;26.73;101205.72;5029636;28;20039;-72
2021/04/08 09:08:53;;;;;;;8.57;4.00;;;;;;;28.67;27.42;101192.84;5027910;28;20072;-73
2021/04/08 09:11:24;;;;;;;8.63;3.45;;;;;;;28.75;26.62;101192.50;5027303;28;20549;-72
2021/04/08 09:13:53;;;;;;;9.77;4.35;;;;;;;28.52;26.31;101189.09;5027272;28;20045;-72
2021/04/08 09:16:21;;;;;;;5.90;2.20;;;;;;;28.50;26.65;101193.72;5025979;28;20505;-73
2021/04/08 09:19:03;;;;;;;8.73;2.55;;;;;;;28.60;27.14;101185.97;4787713;22;22363;-71
2021/04/08 09:21:45;;;;;;;6.45;2.60;;;;;;;28.67;26.53;101181.09;4943523;28;20050;-72
2021/04/08 09:24:15;;;;;;;7.07;2.47;;;;;;;28.68;26.40;101174.72;4948384;28;20042;-74
2021/04/08 09:26:45;;;;;;;7.35;2.70;;;;;;;28.75;26.33;101176.19;4950676;28;20589;-73
2021/04/08 09:29:16;;;;;;;8.70;2.75;;;;;;;28.86;25.64;101173.75;4950109;29;20043;-74
2021/04/08 09:31:44;;;;;;;6.78;2.25;;;;;;;28.81;25.79;101174.00;4949931;29;20040;-74
2021/04/08 09:34:11;;;;;;;8.23;3.00;;;;;;;28.67;26.00;101168.41;4949494;28;20036;-74
2021/04/08 09:36:43;;;;;;;5.95;1.77;;;;;;;28.66;25.83;101168.47;4950337;29;20035;-74
2021/04/08 09:39:27;;;;;;;4.20;1.38;;;;;;;28.90;25.29;101156.31;4950398;29;20110;-73
2021/04/08 09:41:58;;;;;;;5.28;1.77;;;;;;;29.09;25.36;101154.34;4949595;29;20562;-74
2021/04/08 09:44:27;;;;;;;5.15;1.30;;;;;;;29.15;24.98;101150.38;4947823;28;20383;-73
2021/04/08 09:46:58;;;;;;;7.93;2.00;;;;;;;28.95;25.01;101156.94;4949179;29;20398;-74
2021/04/08 09:49:58;;;;;;;6.65;2.05;;;;;;;29.04;24.93;101153.72;4950091;28;20086;-74
2021/04/08 09:52:25;;;;;;;5.90;2.13;;;;;;;28.97;24.70;101160.44;4949824;28;20130;-74
2021/04/08 09:54:55;;;;;;;8.50;2.40;;;;;;;29.17;24.96;101167.50;4947493;28;20059;-73
2021/04/08 09:57:41;;;;;;;7.85;3.53;;;;;;;29.40;27.98;101160.84;4949573;28;20110;-73
2021/04/08 10:00:13;;;;;;;14.05;4.10;;;;;;;29.37;31.35;101166.44;4949671;29;20243;-73
2021/04/08 10:02:57;;;;;;;12.25;3.67;;;;;;;29.26;32.75;101162.47;4950032;28;20066;-72
2021/04/08 10:05:29;;;;;;;11.50;3.75;;;;;;;29.27;32.55;101166.94;4934460;29;20059;-73
2021/04/08 10:07:58;;;;;;;14.23;4.22;;;;;;;29.31;33.00;101157.63;4948960;28;20039;-73
2021/04/08 10:10:41;;;;;;;10.88;3.38;;;;;;;29.58;32.93;101171.56;4948916;28;20043;-73
2021/04/08 10:13:24;;;;;;;11.70;3.90;;;;;;;29.50;31.59;101168.38;4950159;28;20050;-74
2021/04/08 10:15:53;;;;;;;10.15;2.67;;;;;;;29.39;30.47;101167.25;4948528;28;20270;-73
2021/04/08 10:18:24;;;;;;;8.10;2.45;;;;;;;29.46;30.11;101177.69;4949394;28;20043;-72
2021/04/08 10:20:52;;;;;;;7.93;2.40;;;;;;;29.59;29.64;101177.88;4949935;28;20027;-73
2021/04/08 10:23:34;;;;;;;5.38;1.90;;;;;;;29.66;28.34;101185.63;4951214;28;20035;-72
2021/04/08 10:26:03;;;;;;;10.55;2.65;;;;;;;29.45;28.43;101192.28;4953862;28;20138;-71
2021/04/08 10:28:39;;;;;;;8.10;2.42;;;;;;;29.40;29.06;101186.22;4953595;28;20130;-72
2021/04/08 10:31:15;;;;;;;6.43;2.00;;;;;;;29.47;29.55;101194.91;4952403;29;20333;-72
2021/04/08 10:33:44;;;;;;;7.07;2.17;;;;;;;29.55;29.46;101198.94;4952885;28;20368;-72
2021/04/08 10:36:11;;;;;;;9.90;2.50;;;;;;;29.54;29.41;101197.19;4954036;28;20122;-73
2021/04/08 10:38:38;;;;;;;9.90;3.17;;;;;;;29.38;29.71;101198.13;4937108;29;20054;-72
2021/04/08 10:41:05;;;;;;;12.95;4.70;;;;;;;28.43;30.56;101202.25;4937119;28;20064;-72
2021/04/08 10:43:34;;;;;;;10.45;3.70;;;;;;;27.21;31.67;101182.91;4952070;28;20043;-72
2021/04/08 10:46:02;;;;;;;11.98;4.25;;;;;;;26.95;32.62;101186.81;4953042;28;20122;-71
2021/04/08 10:48:30;;;;;;;11.90;4.35;;;;;;;27.03;32.30;101190.06;4953773;28;20047;-71
2021/04/08 10:50:58;;;;;;;9.93;2.83;;;;;;;26.72;32.35;101181.50;4952927;29;20288;-71
2021/04/08 10:53:26;;;;;;;10.05;2.80;;;;;;;26.51;33.18;101183.38;4952476;29;20110;-71
2021/04/08 10:55:54;;;;;;;13.50;4.13;;;;;;;26.61;32.90;101176.56;4935903;29;20043;-71
2021/04/08 10:58:28;;;;;;;14.18;3.28;;;;;;;26.64;33.31;101164.75;4952955;28;20453;-71
2021/04/08 11:00:56;;;;;;;9.95;2.50;;;;;;;26.32;33.80;101161.59;4953103;28;20035;-72
2021/04/08 11:03:24;;;;;;;9.05;2.28;;;;;;;26.34;34.13;101146.16;4952190;28;20118;-71
2021/04/08 11:05:52;;;;;;;11.05;2.92;;;;;;;26.10;34.43;101150.78;4952856;28;20341;-71
2021/04/08 11:08:21;;;;;;;12.82;3.45;;;;;;;26.45;34.36;101148.44;4952777;28;20122;-72
2021/04/08 11:10:48;;;;;;;11.77;3.22;;;;;;;26.69;33.81;101147.31;4952326;28;20035;-71
2021/04/08 11:13:15;;;;;;;13.75;4.35;;;;;;;26.90;33.85;101131.97;4951585;28;20146;-72
2021/04/08 11:15:45;;;;;;;10.68;3.10;;;;;;;26.92;34.42;101132.75;4952869;28;20118;-72
2021/04/08 11:18:14;;;;;;;10.02;3.60;;;;;;;27.07;34.40;101137.47;4952782;29;20070;-72
2021/04/08 11:20:44;;;;;;;9.13;2.38;;;;;;;27.09;35.23;101140.09;4953037;29;20043;-73
2021/04/08 11:23:13;;;;;;;9.98;2.80;;;;;;;27.47;35.70;101144.59;4952368;28;20067;-72
2021/04/08 11:25:42;;;;;;;15.52;3.38;;;;;;;27.97;35.29;101143.94;4952208;28;20055;-74
2021/04/08 11:28:09;;;;;;;13.57;3.38;;;;;;;28.19;35.18;101139.22;4934217;29;20046;-76
2021/04/08 11:30:39;;;;;;;11.88;2.83;;;;;;;28.55;34.98;101144.59;4936141;29;20146;-76